sensor_id;sensor_type;location;lat;lon;timestamp;pressure;altitude;pressure_sealevel;temperature;humidity
54870;BME280;40756;-37.950;145.008;2022-10-03T00:01:56;101882.85;;;14.90;42.09
54870;BME280;40756;-37.950;145.008;2022-10-03T00:04:42;101879.05;;;14.34;41.93
54870;BME280;40756;-37.950;145.008;2022-10-03T00:07:23;101874.22;;;14.97;41.82
54870;BME280;40756;-37.950;145.008;2022-10-03T00:10:08;101871.36;;;15.68;41.09
54870;BME280;40756;-37.950;145.008;2022-10-03T00:12:52;101871.53;;;15.04;41.57
54870;BME280;40756;-37.950;145.008;2022-10-03T00:15:34;101869.87;;;14.51;41.71
54870;BME280;40756;-37.950;145.008;2022-10-03T00:18:17;101863.91;;;14.74;41.48
54870;BME280;40756;-37.950;145.008;2022-10-03T00:21:07;101860.32;;;14.73;41.69
54870;BME280;40756;-37.950;145.008;2022-10-03T00:23:46;101858.58;;;15.34;41.58
54870;BME280;40756;-37.950;145.008;2022-10-03T00:26:26;101848.55;;;15.19;41.66
54870;BME280;40756;-37.950;145.008;2022-10-03T00:29:12;101845.00;;;15.12;42.08
54870;BME280;40756;-37.950;145.008;2022-10-03T00:31:55;101839.68;;;15.72;41.37
54870;BME280;40756;-37.950;145.008;2022-10-03T00:34:35;101834.70;;;16.11;40.48
54870;BME280;40756;-37.950;145.008;2022-10-03T00:37:22;101834.25;;;16.39;40.47
54870;BME280;40756;-37.950;145.008;2022-10-03T00:40:07;101828.04;;;16.13;40.74
54870;BME280;40756;-37.950;145.008;2022-10-03T00:43:14;101819.78;;;16.27;39.06
54870;BME280;40756;-37.950;145.008;2022-10-03T00:50:57;101812.58;;;17.84;38.59
54870;BME280;40756;-37.950;145.008;2022-10-03T00:53:46;101809.70;;;16.49;38.62
54870;BME280;40756;-37.950;145.008;2022-10-03T00:56:32;101808.95;;;17.12;38.59
54870;BME280;40756;-37.950;145.008;2022-10-03T00:59:19;101806.52;;;16.18;38.65
54870;BME280;40756;-37.950;145.008;2022-10-03T01:01:54;101800.54;;;15.23;40.13
54870;BME280;40756;-37.950;145.008;2022-10-03T01:04:43;101802.76;;;15.06;41.31
54870;BME280;40756;-37.950;145.008;2022-10-03T01:07:29;101802.70;;;15.29;40.67
54870;BME280;40756;-37.950;145.008;2022-10-03T01:10:13;101810.75;;;15.47;41.34
54870;BME280;40756;-37.950;145.008;2022-10-03T01:13:04;101811.84;;;15.95;40.56
54870;BME280;40756;-37.950;145.008;2022-10-03T01:15:45;101819.55;;;15.81;40.60
54870;BME280;40756;-37.950;145.008;2022-10-03T01:18:32;101820.59;;;15.43;40.81
54870;BME280;40756;-37.950;145.008;2022-10-03T01:21:11;101813.52;;;15.75;41.70
54870;BME280;40756;-37.950;145.008;2022-10-03T01:24:08;101805.23;;;16.55;40.54
54870;BME280;40756;-37.950;145.008;2022-10-03T01:26:53;101798.93;;;16.19;39.31
54870;BME280;40756;-37.950;145.008;2022-10-03T01:29:31;101794.81;;;16.48;39.99
54870;BME280;40756;-37.950;145.008;2022-10-03T01:32:07;101786.45;;;17.39;39.12
54870;BME280;40756;-37.950;145.008;2022-10-03T01:34:44;101790.07;;;16.84;38.84
54870;BME280;40756;-37.950;145.008;2022-10-03T01:37:20;101788.60;;;17.26;39.18
54870;BME280;40756;-37.950;145.008;2022-10-03T01:39:58;101790.04;;;17.42;38.62
54870;BME280;40756;-37.950;145.008;2022-10-03T01:42:36;101787.46;;;17.13;39.31
54870;BME280;40756;-37.950;145.008;2022-10-03T01:45:13;101785.07;;;17.25;38.61
54870;BME280;40756;-37.950;145.008;2022-10-03T01:47:52;101783.34;;;17.40;38.75
54870;BME280;40756;-37.950;145.008;2022-10-03T01:50:30;101781.18;;;17.74;39.04
54870;BME280;40756;-37.950;145.008;2022-10-03T01:53:10;101774.58;;;17.89;37.95
54870;BME280;40756;-37.950;145.008;2022-10-03T01:55:47;101772.46;;;17.55;37.65
54870;BME280;40756;-37.950;145.008;2022-10-03T01:58:28;101766.54;;;17.71;38.45
54870;BME280;40756;-37.950;145.008;2022-10-03T02:01:11;101762.07;;;17.69;37.53
54870;BME280;40756;-37.950;145.008;2022-10-03T02:03:48;101761.16;;;18.47;36.63
54870;BME280;40756;-37.950;145.008;2022-10-03T02:06:26;101755.66;;;18.84;36.18
54870;BME280;40756;-37.950;145.008;2022-10-03T02:09:06;101753.36;;;19.87;36.06
54870;BME280;40756;-37.950;145.008;2022-10-03T02:11:38;101754.43;;;19.33;35.44
54870;BME280;40756;-37.950;145.008;2022-10-03T02:14:20;101752.90;;;18.39;36.49
54870;BME280;40756;-37.950;145.008;2022-10-03T02:16:58;101746.81;;;18.43;36.51
54870;BME280;40756;-37.950;145.008;2022-10-03T02:19:40;101749.04;;;19.53;35.57
54870;BME280;40756;-37.950;145.008;2022-10-03T02:22:27;101746.26;;;19.24;34.99
54870;BME280;40756;-37.950;145.008;2022-10-03T02:25:10;101740.83;;;19.58;34.66
54870;BME280;40756;-37.950;145.008;2022-10-03T02:28:08;101736.88;;;19.51;33.89
54870;BME280;40756;-37.950;145.008;2022-10-03T02:30:53;101727.06;;;20.83;33.29
54870;BME280;40756;-37.950;145.008;2022-10-03T02:36:26;101706.73;;;22.22;29.69
54870;BME280;40756;-37.950;145.008;2022-10-03T02:39:20;101697.48;;;21.59;27.42
54870;BME280;40756;-37.950;145.008;2022-10-03T02:45:09;101695.60;;;22.75;26.93
54870;BME280;40756;-37.950;145.008;2022-10-03T02:48:14;101695.25;;;22.56;24.60
54870;BME280;40756;-37.950;145.008;2022-10-03T02:51:14;101694.07;;;23.10;25.51
54870;BME280;40756;-37.950;145.008;2022-10-03T02:54:59;101692.07;;;23.31;26.94
54870;BME280;40756;-37.950;145.008;2022-10-03T02:59:01;101690.73;;;23.06;24.71
54870;BME280;40756;-37.950;145.008;2022-10-03T03:01:53;101685.71;;;22.37;26.34
54870;BME280;40756;-37.950;145.008;2022-10-03T03:04:53;101685.30;;;23.02;25.68
54870;BME280;40756;-37.950;145.008;2022-10-03T03:11:12;101682.78;;;22.53;27.46
54870;BME280;40756;-37.950;145.008;2022-10-03T03:14:44;101684.00;;;21.54;25.22
54870;BME280;40756;-37.950;145.008;2022-10-03T03:17:30;101679.43;;;22.57;26.42
54870;BME280;40756;-37.950;145.008;2022-10-03T03:20:19;101676.52;;;22.08;24.49
54870;BME280;40756;-37.950;145.008;2022-10-03T03:23:06;101669.04;;;22.10;25.34
54870;BME280;40756;-37.950;145.008;2022-10-03T03:25:59;101662.54;;;22.88;24.06
54870;BME280;40756;-37.950;145.008;2022-10-03T03:28:41;101661.06;;;23.26;24.00
54870;BME280;40756;-37.950;145.008;2022-10-03T03:31:15;101653.43;;;23.69;22.76
54870;BME280;40756;-37.950;145.008;2022-10-03T03:33:57;101652.29;;;23.34;20.67
54870;BME280;40756;-37.950;145.008;2022-10-03T03:36:38;101646.74;;;23.40;20.53
54870;BME280;40756;-37.950;145.008;2022-10-03T03:39:23;101639.31;;;23.62;18.30
54870;BME280;40756;-37.950;145.008;2022-10-03T03:42:07;101635.10;;;23.63;20.25
54870;BME280;40756;-37.950;145.008;2022-10-03T03:44:55;101632.54;;;23.36;20.03
54870;BME280;40756;-37.950;145.008;2022-10-03T03:47:46;101634.25;;;23.82;19.09
54870;BME280;40756;-37.950;145.008;2022-10-03T03:50:32;101624.46;;;22.68;22.13
54870;BME280;40756;-37.950;145.008;2022-10-03T03:53:35;101619.17;;;22.82;20.35
54870;BME280;40756;-37.950;145.008;2022-10-03T03:56:20;101619.05;;;23.94;21.44
54870;BME280;40756;-37.950;145.008;2022-10-03T03:59:05;101620.82;;;23.98;22.96
54870;BME280;40756;-37.950;145.008;2022-10-03T04:02:04;101616.26;;;24.14;21.63
54870;BME280;40756;-37.950;145.008;2022-10-03T04:04:47;101612.30;;;24.15;21.65
54870;BME280;40756;-37.950;145.008;2022-10-03T04:07:28;101602.69;;;24.91;21.43
54870;BME280;40756;-37.950;145.008;2022-10-03T04:10:18;101597.72;;;24.77;21.05
54870;BME280;40756;-37.950;145.008;2022-10-03T04:13:09;101600.44;;;24.92;20.19
54870;BME280;40756;-37.950;145.008;2022-10-03T04:15:54;101596.91;;;24.59;21.24
54870;BME280;40756;-37.950;145.008;2022-10-03T04:18:40;101592.96;;;24.14;19.35
54870;BME280;40756;-37.950;145.008;2022-10-03T04:21:47;101589.52;;;23.98;19.94
54870;BME280;40756;-37.950;145.008;2022-10-03T04:24:44;101581.95;;;24.28;19.92
54870;BME280;40756;-37.950;145.008;2022-10-03T04:27:34;101580.23;;;24.06;20.38
54870;BME280;40756;-37.950;145.008;2022-10-03T04:30:10;101582.34;;;24.06;20.36
54870;BME280;40756;-37.950;145.008;2022-10-03T04:32:54;101576.95;;;24.57;19.48
54870;BME280;40756;-37.950;145.008;2022-10-03T04:36:59;101571.42;;;25.01;20.69
54870;BME280;40756;-37.950;145.008;2022-10-03T04:39:40;101571.05;;;24.74;21.16
54870;BME280;40756;-37.950;145.008;2022-10-03T04:42:22;101572.60;;;24.37;19.69
54870;BME280;40756;-37.950;145.008;2022-10-03T04:45:09;101563.63;;;24.74;21.60
54870;BME280;40756;-37.950;145.008;2022-10-03T04:47:46;101556.51;;;24.73;20.03
54870;BME280;40756;-37.950;145.008;2022-10-03T04:50:27;101554.35;;;23.91;19.94
54870;BME280;40756;-37.950;145.008;2022-10-03T04:53:10;101551.48;;;24.48;20.72
54870;BME280;40756;-37.950;145.008;2022-10-03T04:55:49;101546.79;;;24.49;19.83
54870;BME280;40756;-37.950;145.008;2022-10-03T04:58:35;101549.28;;;24.34;20.22
54870;BME280;40756;-37.950;145.008;2022-10-03T05:01:14;101555.09;;;25.06;20.40
54870;BME280;40756;-37.950;145.008;2022-10-03T05:03:58;101559.18;;;24.69;20.17
54870;BME280;40756;-37.950;145.008;2022-10-03T05:06:41;101564.26;;;23.97;19.56
54870;BME280;40756;-37.950;145.008;2022-10-03T05:09:22;101565.90;;;23.94;20.62
54870;BME280;40756;-37.950;145.008;2022-10-03T05:12:04;101568.63;;;23.83;21.29
54870;BME280;40756;-37.950;145.008;2022-10-03T05:14:55;101565.58;;;23.40;20.34
54870;BME280;40756;-37.950;145.008;2022-10-03T05:17:33;101562.98;;;23.34;21.49
54870;BME280;40756;-37.950;145.008;2022-10-03T05:20:31;101558.43;;;23.75;21.81
54870;BME280;40756;-37.950;145.008;2022-10-03T05:23:13;101561.11;;;23.32;22.64
54870;BME280;40756;-37.950;145.008;2022-10-03T05:25:57;101556.14;;;22.90;22.43
54870;BME280;40756;-37.950;145.008;2022-10-03T05:28:40;101555.11;;;22.92;21.32
54870;BME280;40756;-37.950;145.008;2022-10-03T05:31:36;101558.11;;;23.17;22.73
54870;BME280;40756;-37.950;145.008;2022-10-03T05:34:18;101556.04;;;22.81;21.56
54870;BME280;40756;-37.950;145.008;2022-10-03T05:37:06;101556.15;;;22.22;21.57
54870;BME280;40756;-37.950;145.008;2022-10-03T05:39:50;101549.47;;;21.75;22.51
54870;BME280;40756;-37.950;145.008;2022-10-03T05:42:36;101550.28;;;22.22;23.61
54870;BME280;40756;-37.950;145.008;2022-10-03T05:45:21;101556.23;;;22.43;22.57
54870;BME280;40756;-37.950;145.008;2022-10-03T05:48:09;101559.49;;;22.37;24.25
54870;BME280;40756;-37.950;145.008;2022-10-03T05:51:03;101559.16;;;21.91;22.51
54870;BME280;40756;-37.950;145.008;2022-10-03T05:53:53;101557.28;;;22.05;22.64
54870;BME280;40756;-37.950;145.008;2022-10-03T05:56:39;101561.88;;;21.82;23.14
54870;BME280;40756;-37.950;145.008;2022-10-03T05:59:35;101556.89;;;21.78;23.72
54870;BME280;40756;-37.950;145.008;2022-10-03T06:02:51;101556.31;;;21.59;23.32
54870;BME280;40756;-37.950;145.008;2022-10-03T06:05:29;101555.14;;;21.52;23.47
54870;BME280;40756;-37.950;145.008;2022-10-03T06:08:46;101555.93;;;21.48;23.50
54870;BME280;40756;-37.950;145.008;2022-10-03T06:11:35;101553.34;;;22.01;23.21
54870;BME280;40756;-37.950;145.008;2022-10-03T06:14:33;101552.76;;;22.09;22.86
54870;BME280;40756;-37.950;145.008;2022-10-03T06:17:23;101548.42;;;21.92;22.84
54870;BME280;40756;-37.950;145.008;2022-10-03T06:20:09;101551.83;;;22.26;24.00
54870;BME280;40756;-37.950;145.008;2022-10-03T06:23:06;101554.13;;;21.78;21.24
54870;BME280;40756;-37.950;145.008;2022-10-03T06:26:11;101555.88;;;22.08;22.25
54870;BME280;40756;-37.950;145.008;2022-10-03T06:29:03;101556.50;;;21.94;22.90
54870;BME280;40756;-37.950;145.008;2022-10-03T06:32:06;101557.24;;;21.70;22.87
54870;BME280;40756;-37.950;145.008;2022-10-03T06:35:07;101560.30;;;21.93;23.32
54870;BME280;40756;-37.950;145.008;2022-10-03T06:38:13;101565.53;;;21.61;24.07
54870;BME280;40756;-37.950;145.008;2022-10-03T06:42:06;101572.85;;;21.56;24.95
54870;BME280;40756;-37.950;145.008;2022-10-03T06:45:07;101583.33;;;21.10;26.61
54870;BME280;40756;-37.950;145.008;2022-10-03T06:48:06;101590.40;;;20.92;27.67
54870;BME280;40756;-37.950;145.008;2022-10-03T06:50:52;101588.69;;;20.23;28.67
54870;BME280;40756;-37.950;145.008;2022-10-03T06:54:09;101590.44;;;19.68;29.35
54870;BME280;40756;-37.950;145.008;2022-10-03T06:57:18;101594.09;;;19.71;30.42
54870;BME280;40756;-37.950;145.008;2022-10-03T07:00:01;101600.27;;;19.09;31.54
54870;BME280;40756;-37.950;145.008;2022-10-03T07:04:02;101604.04;;;19.59;31.15
54870;BME280;40756;-37.950;145.008;2022-10-03T07:07:00;101607.48;;;19.00;32.30
54870;BME280;40756;-37.950;145.008;2022-10-03T07:10:02;101604.14;;;18.93;32.94
54870;BME280;40756;-37.950;145.008;2022-10-03T07:12:54;101603.92;;;19.52;33.68
54870;BME280;40756;-37.950;145.008;2022-10-03T07:15:44;101609.65;;;19.05;33.63
54870;BME280;40756;-37.950;145.008;2022-10-03T07:19:04;101611.95;;;19.39;34.79
54870;BME280;40756;-37.950;145.008;2022-10-03T07:22:26;101621.01;;;19.37;36.77
54870;BME280;40756;-37.950;145.008;2022-10-03T07:25:36;101626.69;;;19.23;37.54
54870;BME280;40756;-37.950;145.008;2022-10-03T07:29:41;101624.49;;;19.62;38.45
54870;BME280;40756;-37.950;145.008;2022-10-03T07:32:30;101625.19;;;19.34;38.72
54870;BME280;40756;-37.950;145.008;2022-10-03T07:35:50;101624.43;;;19.17;38.93
54870;BME280;40756;-37.950;145.008;2022-10-03T07:39:07;101624.90;;;19.11;39.34
54870;BME280;40756;-37.950;145.008;2022-10-03T07:41:51;101626.54;;;19.16;38.99
54870;BME280;40756;-37.950;145.008;2022-10-03T07:44:49;101628.55;;;19.04;38.89
54870;BME280;40756;-37.950;145.008;2022-10-03T07:47:55;101631.34;;;19.19;39.07
54870;BME280;40756;-37.950;145.008;2022-10-03T07:50:48;101631.67;;;19.45;38.45
54870;BME280;40756;-37.950;145.008;2022-10-03T07:56:02;101633.64;;;19.50;38.81
54870;BME280;40756;-37.950;145.008;2022-10-03T07:58:53;101631.02;;;19.15;38.61
54870;BME280;40756;-37.950;145.008;2022-10-03T08:01:49;101628.90;;;19.21;38.92
54870;BME280;40756;-37.950;145.008;2022-10-03T08:04:49;101632.35;;;19.05;39.29
54870;BME280;40756;-37.950;145.008;2022-10-03T08:07:35;101633.05;;;18.73;40.14
54870;BME280;40756;-37.950;145.008;2022-10-03T08:10:19;101633.65;;;18.81;40.01
54870;BME280;40756;-37.950;145.008;2022-10-03T08:13:22;101639.60;;;18.87;40.08
54870;BME280;40756;-37.950;145.008;2022-10-03T08:16:08;101645.01;;;19.15;40.22
54870;BME280;40756;-37.950;145.008;2022-10-03T08:18:58;101650.31;;;18.56;41.18
54870;BME280;40756;-37.950;145.008;2022-10-03T08:21:48;101651.04;;;18.71;40.25
54870;BME280;40756;-37.950;145.008;2022-10-03T08:24:34;101661.81;;;18.82;39.73
54870;BME280;40756;-37.950;145.008;2022-10-03T08:27:32;101667.69;;;18.87;39.31
54870;BME280;40756;-37.950;145.008;2022-10-03T08:30:19;101664.33;;;18.14;40.58
54870;BME280;40756;-37.950;145.008;2022-10-03T08:35:31;101667.68;;;18.88;40.98
54870;BME280;40756;-37.950;145.008;2022-10-03T08:38:48;101671.17;;;17.80;41.16
54870;BME280;40756;-37.950;145.008;2022-10-03T08:42:20;101667.73;;;18.09;41.11
54870;BME280;40756;-37.950;145.008;2022-10-03T08:45:22;101667.22;;;18.08;41.26
54870;BME280;40756;-37.950;145.008;2022-10-03T08:48:33;101667.42;;;17.75;41.67
54870;BME280;40756;-37.950;145.008;2022-10-03T08:51:40;101673.53;;;17.60;41.78
54870;BME280;40756;-37.950;145.008;2022-10-03T08:54:32;101681.93;;;17.66;42.01
54870;BME280;40756;-37.950;145.008;2022-10-03T08:57:22;101687.85;;;17.34;42.13
54870;BME280;40756;-37.950;145.008;2022-10-03T09:00:13;101696.09;;;17.56;42.26
54870;BME280;40756;-37.950;145.008;2022-10-03T09:03:37;101698.22;;;17.02;42.47
54870;BME280;40756;-37.950;145.008;2022-10-03T09:07:07;101706.20;;;17.12;42.17
54870;BME280;40756;-37.950;145.008;2022-10-03T09:12:16;101714.23;;;17.56;42.92
54870;BME280;40756;-37.950;145.008;2022-10-03T09:15:00;101715.65;;;17.06;42.54
54870;BME280;40756;-37.950;145.008;2022-10-03T09:18:03;101728.27;;;16.92;42.72
54870;BME280;40756;-37.950;145.008;2022-10-03T09:23:28;101734.60;;;17.57;42.86
54870;BME280;40756;-37.950;145.008;2022-10-03T09:26:26;101747.10;;;16.86;42.60
54870;BME280;40756;-37.950;145.008;2022-10-03T09:29:25;101750.83;;;17.40;42.14
54870;BME280;40756;-37.950;145.008;2022-10-03T09:32:37;101752.60;;;17.31;42.40
54870;BME280;40756;-37.950;145.008;2022-10-03T09:35:57;101754.97;;;16.67;42.68
54870;BME280;40756;-37.950;145.008;2022-10-03T09:38:46;101760.84;;;17.02;42.78
54870;BME280;40756;-37.950;145.008;2022-10-03T09:42:38;101761.78;;;16.98;43.40
54870;BME280;40756;-37.950;145.008;2022-10-03T09:45:25;101769.38;;;16.84;43.50
54870;BME280;40756;-37.950;145.008;2022-10-03T09:48:20;101776.42;;;16.80;43.61
54870;BME280;40756;-37.950;145.008;2022-10-03T09:51:14;101784.67;;;16.54;44.04
54870;BME280;40756;-37.950;145.008;2022-10-03T09:54:47;101791.36;;;16.53;43.90
54870;BME280;40756;-37.950;145.008;2022-10-03T09:57:43;101795.04;;;16.53;43.89
54870;BME280;40756;-37.950;145.008;2022-10-03T10:00:23;101803.10;;;16.26;44.26
54870;BME280;40756;-37.950;145.008;2022-10-03T10:06:11;101818.42;;;16.75;44.15
54870;BME280;40756;-37.950;145.008;2022-10-03T10:10:01;101821.82;;;16.31;43.77
54870;BME280;40756;-37.950;145.008;2022-10-03T10:13:07;101822.73;;;16.52;43.94
54870;BME280;40756;-37.950;145.008;2022-10-03T10:16:23;101827.69;;;16.27;43.89
54870;BME280;40756;-37.950;145.008;2022-10-03T10:19:23;101830.01;;;16.25;43.80
54870;BME280;40756;-37.950;145.008;2022-10-03T10:22:49;101829.71;;;16.31;43.61
54870;BME280;40756;-37.950;145.008;2022-10-03T10:25:36;101825.67;;;15.89;42.91
54870;BME280;40756;-37.950;145.008;2022-10-03T10:29:48;101813.61;;;16.28;42.96
54870;BME280;40756;-37.950;145.008;2022-10-03T10:34:02;101810.60;;;15.99;43.02
54870;BME280;40756;-37.950;145.008;2022-10-03T10:40:18;101811.69;;;16.52;43.61
54870;BME280;40756;-37.950;145.008;2022-10-03T10:44:32;101818.17;;;16.20;43.42
54870;BME280;40756;-37.950;145.008;2022-10-03T10:47:24;101819.18;;;15.83;43.77
54870;BME280;40756;-37.950;145.008;2022-10-03T10:52:47;101812.60;;;16.46;43.74
54870;BME280;40756;-37.950;145.008;2022-10-03T10:57:14;101812.57;;;16.00;43.64
54870;BME280;40756;-37.950;145.008;2022-10-03T11:00:05;101809.99;;;15.66;43.82
54870;BME280;40756;-37.950;145.008;2022-10-03T11:03:12;101807.52;;;15.74;43.23
54870;BME280;40756;-37.950;145.008;2022-10-03T11:07:55;101806.27;;;16.05;42.94
54870;BME280;40756;-37.950;145.008;2022-10-03T11:10:54;101804.50;;;15.52;42.69
54870;BME280;40756;-37.950;145.008;2022-10-03T11:16:14;101807.77;;;16.01;42.98
54870;BME280;40756;-37.950;145.008;2022-10-03T11:19:41;101809.11;;;15.75;42.70
54870;BME280;40756;-37.950;145.008;2022-10-03T11:25:58;101811.78;;;16.06;42.97
54870;BME280;40756;-37.950;145.008;2022-10-03T11:29:05;101815.80;;;15.78;42.70
54870;BME280;40756;-37.950;145.008;2022-10-03T11:36:56;101812.14;;;15.76;43.19
54870;BME280;40756;-37.950;145.008;2022-10-03T11:39:41;101816.47;;;15.46;42.94
54870;BME280;40756;-37.950;145.008;2022-10-03T11:42:22;101822.51;;;15.65;43.10
54870;BME280;40756;-37.950;145.008;2022-10-03T11:44:57;101829.82;;;15.71;43.03
54870;BME280;40756;-37.950;145.008;2022-10-03T11:47:43;101839.09;;;15.65;43.31
54870;BME280;40756;-37.950;145.008;2022-10-03T11:50:35;101841.73;;;15.38;43.60
54870;BME280;40756;-37.950;145.008;2022-10-03T11:53:22;101833.36;;;15.58;43.47
54870;BME280;40756;-37.950;145.008;2022-10-03T11:56:09;101822.75;;;15.68;43.42
54870;BME280;40756;-37.950;145.008;2022-10-03T11:58:54;101816.05;;;15.36;43.49
54870;BME280;40756;-37.950;145.008;2022-10-03T12:01:38;101810.80;;;15.59;43.62
54870;BME280;40756;-37.950;145.008;2022-10-03T12:04:22;101814.60;;;15.68;43.71
54870;BME280;40756;-37.950;145.008;2022-10-03T12:07:01;101828.19;;;15.69;43.87
54870;BME280;40756;-37.950;145.008;2022-10-03T12:09:39;101839.26;;;15.72;43.95
54870;BME280;40756;-37.950;145.008;2022-10-03T12:12:18;101844.41;;;15.71;43.99
54870;BME280;40756;-37.950;145.008;2022-10-03T12:14:53;101843.79;;;15.31;44.16
54870;BME280;40756;-37.950;145.008;2022-10-03T12:17:30;101834.67;;;15.76;44.04
54870;BME280;40756;-37.950;145.008;2022-10-03T12:20:05;101845.30;;;15.48;44.11
54870;BME280;40756;-37.950;145.008;2022-10-03T12:22:47;101851.05;;;15.42;44.15
54870;BME280;40756;-37.950;145.008;2022-10-03T12:25:21;101846.96;;;15.45;44.02
54870;BME280;40756;-37.950;145.008;2022-10-03T12:28:00;101848.98;;;15.70;44.15
54870;BME280;40756;-37.950;145.008;2022-10-03T12:30:39;101845.18;;;15.75;43.99
54870;BME280;40756;-37.950;145.008;2022-10-03T12:33:25;101837.75;;;15.76;44.48
54870;BME280;40756;-37.950;145.008;2022-10-03T12:36:03;101830.16;;;15.77;44.42
54870;BME280;40756;-37.950;145.008;2022-10-03T12:38:53;101827.74;;;15.70;44.35
54870;BME280;40756;-37.950;145.008;2022-10-03T12:41:44;101820.60;;;15.45;44.77
54870;BME280;40756;-37.950;145.008;2022-10-03T12:44:28;101819.57;;;15.42;44.60
54870;BME280;40756;-37.950;145.008;2022-10-03T12:47:20;101817.41;;;15.31;44.76
54870;BME280;40756;-37.950;145.008;2022-10-03T12:49:55;101816.88;;;15.29;45.00
54870;BME280;40756;-37.950;145.008;2022-10-03T12:52:29;101816.32;;;15.21;45.30
54870;BME280;40756;-37.950;145.008;2022-10-03T12:55:14;101817.46;;;15.40;45.31
54870;BME280;40756;-37.950;145.008;2022-10-03T12:57:52;101822.01;;;15.45;45.50
54870;BME280;40756;-37.950;145.008;2022-10-03T13:00:25;101822.38;;;14.88;45.60
54870;BME280;40756;-37.950;145.008;2022-10-03T13:03:14;101818.86;;;15.48;45.60
54870;BME280;40756;-37.950;145.008;2022-10-03T13:06:02;101820.81;;;15.07;45.91
54870;BME280;40756;-37.950;145.008;2022-10-03T13:08:54;101821.98;;;15.29;46.08
54870;BME280;40756;-37.950;145.008;2022-10-03T13:11:34;101818.83;;;15.02;46.11
54870;BME280;40756;-37.950;145.008;2022-10-03T13:14:21;101819.84;;;15.18;46.42
54870;BME280;40756;-37.950;145.008;2022-10-03T13:17:03;101820.47;;;15.23;46.47
54870;BME280;40756;-37.950;145.008;2022-10-03T13:19:46;101824.32;;;15.24;46.57
54870;BME280;40756;-37.950;145.008;2022-10-03T13:22:29;101819.74;;;15.17;46.88
54870;BME280;40756;-37.950;145.008;2022-10-03T13:25:08;101822.90;;;15.10;47.06
54870;BME280;40756;-37.950;145.008;2022-10-03T13:27:46;101828.81;;;15.12;47.08
54870;BME280;40756;-37.950;145.008;2022-10-03T13:30:22;101831.24;;;15.18;46.96
54870;BME280;40756;-37.950;145.008;2022-10-03T13:32:58;101834.13;;;15.16;47.07
54870;BME280;40756;-37.950;145.008;2022-10-03T13:35:37;101840.91;;;14.98;47.40
54870;BME280;40756;-37.950;145.008;2022-10-03T13:38:20;101839.89;;;14.92;47.50
54870;BME280;40756;-37.950;145.008;2022-10-03T13:40:57;101836.78;;;15.27;47.63
54870;BME280;40756;-37.950;145.008;2022-10-03T13:43:33;101833.51;;;14.93;47.70
54870;BME280;40756;-37.950;145.008;2022-10-03T13:46:10;101837.97;;;14.79;48.16
54870;BME280;40756;-37.950;145.008;2022-10-03T13:48:45;101842.10;;;14.76;48.31
54870;BME280;40756;-37.950;145.008;2022-10-03T13:51:26;101842.80;;;14.58;48.51
54870;BME280;40756;-37.950;145.008;2022-10-03T13:54:03;101848.84;;;14.56;48.56
54870;BME280;40756;-37.950;145.008;2022-10-03T13:56:43;101850.47;;;14.24;48.81
54870;BME280;40756;-37.950;145.008;2022-10-03T14:00:22;101848.08;;;14.35;48.64
54870;BME280;40756;-37.950;145.008;2022-10-03T14:03:00;101846.94;;;14.47;49.39
54870;BME280;40756;-37.950;145.008;2022-10-03T14:06:17;101851.33;;;14.38;49.49
54870;BME280;40756;-37.950;145.008;2022-10-03T14:09:08;101849.76;;;14.14;49.11
54870;BME280;40756;-37.950;145.008;2022-10-03T14:11:48;101853.11;;;14.24;49.84
54870;BME280;40756;-37.950;145.008;2022-10-03T14:14:36;101861.95;;;14.19;49.85
54870;BME280;40756;-37.950;145.008;2022-10-03T14:17:13;101868.54;;;14.19;49.74
54870;BME280;40756;-37.950;145.008;2022-10-03T14:19:58;101868.19;;;14.15;49.83
54870;BME280;40756;-37.950;145.008;2022-10-03T14:22:45;101866.08;;;14.18;50.01
54870;BME280;40756;-37.950;145.008;2022-10-03T14:25:22;101869.67;;;14.15;50.12
54870;BME280;40756;-37.950;145.008;2022-10-03T14:27:55;101873.68;;;14.14;50.17
54870;BME280;40756;-37.950;145.008;2022-10-03T14:30:29;101876.87;;;14.00;50.24
54870;BME280;40756;-37.950;145.008;2022-10-03T14:33:14;101877.81;;;13.99;50.29
54870;BME280;40756;-37.950;145.008;2022-10-03T14:35:57;101873.01;;;13.97;50.22
54870;BME280;40756;-37.950;145.008;2022-10-03T14:38:49;101869.46;;;14.10;50.45
54870;BME280;40756;-37.950;145.008;2022-10-03T14:41:21;101871.25;;;13.93;50.59
54870;BME280;40756;-37.950;145.008;2022-10-03T14:43:55;101872.53;;;14.10;50.69
54870;BME280;40756;-37.950;145.008;2022-10-03T14:46:32;101866.52;;;13.83;50.84
54870;BME280;40756;-37.950;145.008;2022-10-03T14:49:05;101870.47;;;13.78;50.98
54870;BME280;40756;-37.950;145.008;2022-10-03T14:51:37;101873.28;;;13.75;50.61
54870;BME280;40756;-37.950;145.008;2022-10-03T14:54:18;101876.90;;;14.05;50.65
54870;BME280;40756;-37.950;145.008;2022-10-03T14:56:49;101880.68;;;14.14;50.84
54870;BME280;40756;-37.950;145.008;2022-10-03T14:59:24;101878.96;;;13.93;50.76
54870;BME280;40756;-37.950;145.008;2022-10-03T15:01:56;101881.11;;;13.71;50.61
54870;BME280;40756;-37.950;145.008;2022-10-03T15:04:30;101881.65;;;13.65;50.96
54870;BME280;40756;-37.950;145.008;2022-10-03T15:07:01;101887.91;;;13.92;50.79
54870;BME280;40756;-37.950;145.008;2022-10-03T15:09:40;101887.51;;;14.18;50.76